Time;durP1;ratioP1;P1;durP2;ratioP2;P2;SDS_P1;SDS_P2;PMS_P1;PMS_P2;Temp;Humidity;BMP_temperature;BMP_pressure;BME280_temperature;BME280_humidity;BME280_pressure;Samples;Min_cycle;Max_cycle;Signal;HPM_P1;HPM_P2
2023/04/22 00:00:47;;;;;;;0.10;0.10;;;;;;;11.07;66.75;100926.84;5073428;28;20074;-80
2023/04/22 00:03:14;;;;;;;0.10;0.10;;;;;;;11.06;65.86;100930.38;5083462;28;20074;-81
2023/04/22 00:05:41;;;;;;;0.20;0.20;;;;;;;10.96;66.93;100935.88;5084162;28;20036;-81
2023/04/22 00:08:07;;;;;;;0.10;0.10;;;;;;;11.00;66.69;100937.56;5076624;28;20111;-81
2023/04/22 00:10:34;;;;;;;0.10;0.10;;;;;;;10.97;66.04;100936.75;5074553;28;20040;-81
2023/04/22 00:13:00;;;;;;;0.10;0.10;;;;;;;10.94;65.83;100934.16;5078176;28;20104;-82
2023/04/22 00:15:27;;;;;;;0.10;0.10;;;;;;;10.89;66.67;100941.31;5078053;28;20036;-81
2023/04/22 00:17:53;;;;;;;0.65;0.57;;;;;;;10.87;66.67;100938.72;5073716;28;20516;-81
2023/04/22 00:20:21;;;;;;;0.10;0.10;;;;;;;10.86;66.67;100934.31;5086321;28;20027;-81
2023/04/22 00:22:47;;;;;;;0.50;0.50;;;;;;;10.80;67.35;100934.44;5071890;28;20495;-81
2023/04/22 00:25:14;;;;;;;0.10;0.10;;;;;;;10.81;67.08;100933.53;5081737;28;20467;-81
2023/04/22 00:27:40;;;;;;;0.13;0.13;;;;;;;10.75;67.55;100931.00;5073795;28;20561;-81
2023/04/22 00:30:06;;;;;;;0.20;0.20;;;;;;;10.76;67.14;100927.44;5077497;28;20119;-81
2023/04/22 00:32:33;;;;;;;0.10;0.10;;;;;;;10.75;67.08;100931.00;5088637;28;20047;-81
2023/04/22 00:34:59;;;;;;;1.98;1.88;;;;;;;10.73;67.17;100922.19;5079933;28;20078;-81
2023/04/22 00:37:25;;;;;;;0.20;0.20;;;;;;;10.71;67.09;100919.59;5083489;28;20063;-81
2023/04/22 00:39:51;;;;;;;0.13;0.13;;;;;;;10.71;66.73;100922.22;5077316;28;20046;-81
2023/04/22 00:42:17;;;;;;;0.22;0.22;;;;;;;10.71;66.40;100924.03;5078887;28;20142;-81
2023/04/22 00:44:45;;;;;;;0.10;0.10;;;;;;;10.70;66.73;100922.25;5080633;28;20024;-81
2023/04/22 00:47:12;;;;;;;0.20;0.20;;;;;;;10.69;66.93;100921.38;5072321;28;20507;-81
2023/04/22 00:49:38;;;;;;;0.10;0.10;;;;;;;10.66;66.26;100930.25;5076709;28;20039;-81
2023/04/22 00:52:05;;;;;;;0.10;0.10;;;;;;;10.65;66.63;100928.53;5076687;28;20479;-80
2023/04/22 00:54:34;;;;;;;0.10;0.10;;;;;;;10.62;66.85;100928.56;5078992;28;20139;-81
2023/04/22 00:57:01;;;;;;;0.10;0.10;;;;;;;10.59;66.41;100930.41;5083483;28;20028;-81
2023/04/22 00:59:27;;;;;;;0.30;0.30;;;;;;;10.56;66.70;100941.09;5083519;28;20031;-83
2023/04/22 01:01:54;;;;;;;0.10;0.10;;;;;;;10.54;66.79;100937.56;5083121;28;20024;-81
2023/04/22 01:04:22;;;;;;;0.00;0.00;;;;;;;10.53;66.40;100939.38;5084680;28;20077;-81
2023/04/22 01:06:50;;;;;;;0.15;0.15;;;;;;;10.50;66.69;100940.28;5079865;28;20047;-80
2023/04/22 01:09:19;;;;;;;0.10;0.10;;;;;;;10.51;66.12;100933.22;5081298;28;20040;-81
2023/04/22 01:11:46;;;;;;;0.10;0.10;;;;;;;10.50;66.30;100942.06;5077778;28;20032;-80
2023/04/22 01:14:13;;;;;;;0.10;0.10;;;;;;;10.48;66.59;100933.25;5080944;28;20024;-80
2023/04/22 01:16:42;;;;;;;0.10;0.10;;;;;;;10.47;66.10;100936.81;5083691;28;20467;-83
2023/04/22 01:19:09;;;;;;;0.10;0.10;;;;;;;10.46;66.03;100935.06;5077204;28;20052;-83
2023/04/22 01:21:37;;;;;;;0.20;0.20;;;;;;;10.46;66.07;100935.06;5076121;28;20047;-83
2023/04/22 01:24:04;;;;;;;0.10;0.10;;;;;;;10.44;65.71;100934.22;5079691;28;20039;-81
2023/04/22 01:26:30;;;;;;;0.10;0.10;;;;;;;10.42;66.24;100938.66;5082091;28;20444;-81
2023/04/22 01:28:57;;;;;;;0.10;0.10;;;;;;;10.38;66.13;100932.56;5083711;28;20032;-81
2023/04/22 01:31:23;;;;;;;0.10;0.10;;;;;;;10.35;66.20;100932.56;5079506;28;20028;-81
2023/04/22 01:33:50;;;;;;;0.10;0.10;;;;;;;10.33;66.56;100929.97;5088269;28;20023;-81
2023/04/22 01:36:16;;;;;;;0.10;0.10;;;;;;;10.33;66.83;100934.34;5077057;28;20035;-81
2023/04/22 01:38:42;;;;;;;0.15;0.15;;;;;;;10.29;66.52;100937.97;5076781;28;20032;-80
2023/04/22 01:41:09;;;;;;;0.38;0.38;;;;;;;10.26;66.74;100932.75;5078497;28;20028;-81
2023/04/22 01:43:36;;;;;;;0.10;0.10;;;;;;;10.25;66.82;100939.81;5077948;28;20483;-81
2023/04/22 01:46:03;;;;;;;0.10;0.10;;;;;;;10.23;66.47;100938.97;5078121;28;20542;-80
2023/04/22 01:48:29;;;;;;;1.30;0.73;;;;;;;10.20;66.71;100934.59;5075791;28;20079;-81
2023/04/22 01:50:55;;;;;;;0.10;0.10;;;;;;;10.16;66.37;100940.84;5082030;28;20044;-81
2023/04/22 01:53:22;;;;;;;0.10;0.10;;;;;;;10.14;65.87;100939.09;5075929;28;20042;-81
2023/04/22 01:55:48;;;;;;;0.10;0.10;;;;;;;10.11;66.48;100933.88;5058233;28;20032;-82
2023/04/22 01:58:14;;;;;;;0.10;0.10;;;;;;;10.07;66.42;100934.81;5061337;28;20292;-81
2023/04/22 02:00:40;;;;;;;0.10;0.10;;;;;;;10.04;66.79;100933.97;5077441;28;20036;-82
2023/04/22 02:03:06;;;;;;;0.10;0.10;;;;;;;10.05;66.98;100940.13;5076708;28;20103;-81
2023/04/22 02:05:32;;;;;;;0.10;0.10;;;;;;;10.03;66.90;100932.22;5077343;28;20036;-81
2023/04/22 02:07:58;;;;;;;0.13;0.13;;;;;;;10.03;66.06;100941.94;5080270;28;20039;-81
2023/04/22 02:10:24;;;;;;;0.25;0.25;;;;;;;10.01;66.61;100938.44;5089081;28;20039;-81
2023/04/22 02:12:50;;;;;;;0.10;0.10;;;;;;;9.99;66.25;100946.41;5081903;28;20032;-82
2023/04/22 02:15:16;;;;;;;0.10;0.10;;;;;;;9.98;66.42;100938.47;5079303;28;20035;-82
2023/04/22 02:17:43;;;;;;;0.30;0.30;;;;;;;9.97;66.42;100945.56;5077380;28;20035;-82
2023/04/22 02:20:11;;;;;;;0.10;0.10;;;;;;;9.97;66.24;100949.97;5076871;28;20025;-81
2023/04/22 02:22:38;;;;;;;0.25;0.25;;;;;;;9.96;66.01;100946.44;5076102;28;20430;-81
2023/04/22 02:25:04;;;;;;;0.10;0.10;;;;;;;9.96;66.39;100945.59;5076470;28;20043;-82
2023/04/22 02:27:31;;;;;;;0.10;0.10;;;;;;;9.95;66.84;100943.84;5075494;28;20056;-83
2023/04/22 02:29:57;;;;;;;0.10;0.10;;;;;;;9.95;66.47;100939.41;5076775;28;20562;-81
2023/04/22 02:32:23;;;;;;;0.10;0.10;;;;;;;9.93;66.80;100933.28;5076302;28;20032;-81
2023/04/22 02:34:49;;;;;;;0.13;0.13;;;;;;;9.94;66.74;100934.16;5075563;28;20021;-81
2023/04/22 02:37:15;;;;;;;0.20;0.20;;;;;;;9.92;66.72;100928.88;5075241;28;20031;-81
2023/04/22 02:39:42;;;;;;;0.43;0.43;;;;;;;9.92;66.54;100918.28;5076229;28;20483;-81
2023/04/22 02:42:08;;;;;;;0.10;0.10;;;;;;;9.90;67.35;100912.16;5076291;28;20437;-81
2023/04/22 02:44:34;;;;;;;0.05;0.05;;;;;;;9.88;67.13;100916.56;5076676;28;20082;-81
2023/04/22 02:47:00;;;;;;;0.10;0.10;;;;;;;9.85;67.71;100920.16;5076851;28;20107;-81
2023/04/22 02:49:26;;;;;;;0.10;0.10;;;;;;;9.84;67.56;100904.31;5074584;28;20122;-81
2023/04/22 02:51:52;;;;;;;0.17;0.17;;;;;;;9.83;67.46;100905.19;5057992;28;20059;-82
2023/04/22 02:54:18;;;;;;;0.17;0.17;;;;;;;9.83;67.73;100902.53;5076295;28;20016;-82
2023/04/22 02:56:45;;;;;;;0.10;0.10;;;;;;;9.82;67.88;100893.75;5076067;28;20496;-81
2023/04/22 02:59:11;;;;;;;0.10;0.10;;;;;;;9.83;67.78;100898.16;5080681;28;20028;-81
2023/04/22 03:01:37;;;;;;;0.10;0.10;;;;;;;9.84;67.71;100899.00;5077582;28;20032;-81
2023/04/22 03:04:03;;;;;;;0.10;0.10;;;;;;;9.84;67.82;100888.41;5077344;28;20024;-81
2023/04/22 03:06:29;;;;;;;0.35;0.35;;;;;;;9.83;67.91;100887.56;5076279;28;20127;-81
2023/04/22 03:08:56;;;;;;;0.10;0.10;;;;;;;9.83;67.74;100879.63;5076373;28;20052;-81
2023/04/22 03:11:22;;;;;;;0.43;0.43;;;;;;;9.85;67.85;100884.88;5076003;28;20082;-81
2023/04/22 03:13:48;;;;;;;0.15;0.15;;;;;;;9.85;68.12;100887.53;5076986;28;20036;-81
2023/04/22 03:16:15;;;;;;;0.10;0.10;;;;;;;9.85;68.25;100890.19;5075567;28;20032;-81
2023/04/22 03:18:41;;;;;;;5.30;2.60;;;;;;;9.87;67.79;100883.09;5058489;28;20459;-81
2023/04/22 03:21:07;;;;;;;0.10;0.10;;;;;;;9.91;66.90;100884.78;5076961;28;20395;-81
2023/04/22 03:23:34;;;;;;;0.10;0.10;;;;;;;9.94;66.74;100875.91;5076618;28;20073;-81
2023/04/22 03:26:00;;;;;;;0.47;0.47;;;;;;;9.95;67.02;100886.47;5076147;28;20028;-81
2023/04/22 03:28:26;;;;;;;0.20;0.20;;;;;;;9.96;67.10;100875.00;5057355;28;20044;-81
2023/04/22 03:30:52;;;;;;;0.40;0.40;;;;;;;9.97;67.26;100873.19;5075848;28;20052;-81
2023/04/22 03:33:19;;;;;;;0.10;0.10;;;;;;;9.99;66.81;100867.00;5075563;28;20012;-81
2023/04/22 03:35:48;;;;;;;0.17;0.17;;;;;;;10.04;67.18;100873.09;5076814;28;20565;-81
2023/04/22 03:38:14;;;;;;;1.17;0.43;;;;;;;10.04;67.76;100862.50;5078306;28;20031;-81
2023/04/22 03:40:41;;;;;;;0.80;0.80;;;;;;;10.04;67.67;100865.16;5079821;28;20134;-81
2023/04/22 03:43:07;;;;;;;0.10;0.10;;;;;;;10.01;67.38;100859.03;5080486;28;20029;-81
2023/04/22 03:45:33;;;;;;;0.10;0.10;;;;;;;9.98;67.63;100853.78;5085554;28;20449;-81
2023/04/22 03:48:00;;;;;;;0.10;0.10;;;;;;;9.95;67.58;100860.00;5079522;28;20040;-81
2023/04/22 03:50:26;;;;;;;0.10;0.10;;;;;;;9.96;67.48;100866.19;5061358;28;20028;-81
2023/04/22 03:52:52;;;;;;;1.90;1.73;;;;;;;9.93;67.72;100856.53;5079427;28;20111;-81
2023/04/22 03:55:18;;;;;;;0.10;0.10;;;;;;;9.89;67.57;100849.50;5079405;28;20044;-81
2023/04/22 03:57:44;;;;;;;0.10;0.10;;;;;;;9.89;67.55;100844.22;5077948;28;20055;-81
2023/04/22 04:00:11;;;;;;;0.10;0.10;;;;;;;9.88;67.81;100850.41;5079056;28;20024;-81
2023/04/22 04:02:37;;;;;;;0.10;0.10;;;;;;;9.83;68.26;100844.31;5079019;28;20029;-81
2023/04/22 04:05:03;;;;;;;0.20;0.20;;;;;;;9.88;67.76;100847.78;5078687;28;20036;-81
2023/04/22 04:07:29;;;;;;;0.10;0.10;;;;;;;9.90;67.58;100839.81;5078663;28;20028;-81
2023/04/22 04:09:55;;;;;;;0.10;0.10;;;;;;;9.92;67.78;100843.28;5079567;28;20039;-81
2023/04/22 04:12:21;;;;;;;0.43;0.43;;;;;;;9.95;67.31;100833.53;5071401;28;20040;-80
2023/04/22 04:14:48;;;;;;;0.10;0.10;;;;;;;9.95;67.13;100830.03;5078143;28;20024;-81
2023/04/22 04:17:14;;;;;;;0.10;0.10;;;;;;;9.97;67.07;100822.91;5077670;28;20055;-81
2023/04/22 04:19:41;;;;;;;0.20;0.20;;;;;;;9.97;67.33;100821.16;5077740;28;20503;-80
2023/04/22 04:22:08;;;;;;;0.10;0.10;;;;;;;9.99;67.09;100829.97;5078440;28;20400;-81
2023/04/22 04:24:35;;;;;;;0.10;0.10;;;;;;;10.00;67.39;100821.09;5077828;28;20024;-81
2023/04/22 04:27:02;;;;;;;0.10;0.10;;;;;;;10.01;67.37;100817.53;5080383;28;20149;-81
2023/04/22 04:29:28;;;;;;;0.10;0.10;;;;;;;10.04;67.20;100816.63;5077592;28;20048;-82
2023/04/22 04:31:54;;;;;;;0.10;0.10;;;;;;;10.08;67.13;100814.78;5079208;28;20085;-82
2023/04/22 04:34:20;;;;;;;0.20;0.20;;;;;;;10.09;66.85;100809.47;5077955;28;20020;-83
2023/04/22 04:36:46;;;;;;;0.10;0.10;;;;;;;10.09;67.03;100813.88;5076721;28;20040;-82
2023/04/22 04:39:16;;;;;;;0.10;0.10;;;;;;;10.10;67.15;100810.34;5077051;28;20054;-82
2023/04/22 04:41:42;;;;;;;0.10;0.10;;;;;;;10.12;66.73;100813.81;5077481;28;20020;-82
2023/04/22 04:44:09;;;;;;;0.30;0.30;;;;;;;10.13;66.99;100811.16;5077568;28;20027;-82
2023/04/22 04:46:36;;;;;;;0.10;0.10;;;;;;;10.14;67.09;100812.03;5076924;28;20472;-82
2023/04/22 04:49:04;;;;;;;0.10;0.10;;;;;;;10.14;67.12;100812.03;5085074;28;20020;-82
2023/04/22 04:51:31;;;;;;;0.20;0.20;;;;;;;10.16;66.97;100811.09;5081905;28;20064;-83
2023/04/22 04:53:57;;;;;;;0.10;0.10;;;;;;;10.20;66.93;100811.91;5082849;28;20044;-83
2023/04/22 04:56:23;;;;;;;0.10;0.10;;;;;;;10.24;66.73;100818.03;5078996;28;20150;-83
2023/04/22 04:58:49;;;;;;;0.10;0.10;;;;;;;10.26;66.91;100809.16;5083642;28;20040;-81
2023/04/22 05:01:15;;;;;;;0.10;0.10;;;;;;;10.30;66.69;100816.13;5076258;28;20032;-81
2023/04/22 05:03:41;;;;;;;0.40;0.40;;;;;;;10.33;67.00;100817.84;5079308;28;20024;-81
2023/04/22 05:06:09;;;;;;;0.10;0.10;;;;;;;10.36;66.72;100802.78;5078629;28;20078;-81
2023/04/22 05:08:35;;;;;;;0.10;0.10;;;;;;;10.38;66.83;100793.94;5076452;28;20028;-80
2023/04/22 05:11:01;;;;;;;0.55;0.55;;;;;;;10.41;66.98;100793.91;5078114;28;20024;-80
2023/04/22 05:13:27;;;;;;;0.10;0.10;;;;;;;10.44;66.96;100793.81;5085193;28;20051;-80
2023/04/22 05:15:54;;;;;;;0.10;0.10;;;;;;;10.47;66.73;100799.06;5085455;28;20032;-83
2023/04/22 05:18:20;;;;;;;0.10;0.10;;;;;;;10.49;66.54;100802.53;5082559;28;20029;-81
2023/04/22 05:20:46;;;;;;;3.20;0.88;;;;;;;10.51;66.48;100806.06;5086382;28;20024;-81
2023/04/22 05:23:12;;;;;;;0.10;0.10;;;;;;;10.55;66.57;100806.88;5085661;28;20024;-81
2023/04/22 05:25:38;;;;;;;0.13;0.13;;;;;;;10.56;66.65;100814.78;5083688;28;20027;-81
2023/04/22 05:28:04;;;;;;;0.10;0.10;;;;;;;10.59;66.87;100822.69;5080709;28;20040;-81
2023/04/22 05:30:31;;;;;;;0.17;0.17;;;;;;;10.60;66.70;100827.03;5083239;28;20039;-81
2023/04/22 05:32:57;;;;;;;0.47;0.47;;;;;;;10.64;67.14;100828.75;5086388;28;20024;-81
2023/04/22 05:35:23;;;;;;;0.05;0.05;;;;;;;10.66;66.78;100826.91;5081807;28;20043;-81
2023/04/22 05:37:49;;;;;;;0.20;0.20;;;;;;;10.72;67.36;100838.31;5085196;28;20044;-81
2023/04/22 05:40:15;;;;;;;0.10;0.10;;;;;;;10.76;67.77;100837.34;5080617;28;20028;-81
2023/04/22 05:42:41;;;;;;;0.38;0.38;;;;;;;10.81;67.35;100832.81;5082550;28;20021;-81
2023/04/22 05:45:08;;;;;;;0.30;0.30;;;;;;;10.86;67.33;100822.97;5080800;28;20029;-81
2023/04/22 05:47:34;;;;;;;0.10;0.10;;;;;;;10.93;66.84;100818.41;5063597;28;20036;-81
2023/04/22 05:50:00;;;;;;;0.47;0.47;;;;;;;10.97;66.92;100826.28;5078700;28;20098;-81
2023/04/22 05:52:26;;;;;;;0.10;0.10;;;;;;;11.04;66.94;100821.72;5078041;28;20033;-81
2023/04/22 05:54:52;;;;;;;0.20;0.20;;;;;;;11.09;67.07;100821.59;5077719;28;20025;-82
2023/04/22 05:57:18;;;;;;;0.10;0.10;;;;;;;11.15;66.53;100826.75;5075407;28;20029;-81
2023/04/22 05:59:45;;;;;;;0.10;0.10;;;;;;;11.22;66.43;100817.75;5082384;28;20078;-81
2023/04/22 06:02:11;;;;;;;0.10;0.10;;;;;;;11.28;66.33;100814.97;5074547;28;20480;-81
2023/04/22 06:04:37;;;;;;;0.10;0.10;;;;;;;11.35;66.93;100814.84;5078449;28;20040;-81
2023/04/22 06:07:03;;;;;;;0.10;0.10;;;;;;;11.39;66.60;100812.06;5085577;28;20028;-81
2023/04/22 06:09:30;;;;;;;1.98;1.55;;;;;;;11.45;67.28;100809.28;5081312;28;20035;-82
2023/04/22 06:11:57;;;;;;;0.10;0.10;;;;;;;11.49;67.48;100807.44;5083198;28;20027;-82
2023/04/22 06:14:23;;;;;;;0.20;0.20;;;;;;;11.53;66.96;100809.09;5080589;28;20017;-82
2023/04/22 06:16:49;;;;;;;0.10;0.10;;;;;;;11.55;66.92;100811.69;5075329;28;20040;-82
2023/04/22 06:19:15;;;;;;;0.28;0.28;;;;;;;11.56;67.47;100795.72;5076452;28;20031;-81
2023/04/22 06:21:42;;;;;;;0.10;0.10;;;;;;;11.61;67.83;100791.19;5072793;28;20045;-82
2023/04/22 06:24:09;;;;;;;0.43;0.43;;;;;;;11.64;67.48;100799.06;5085947;28;20408;-82
2023/04/22 06:26:35;;;;;;;0.13;0.13;;;;;;;11.70;67.27;100799.81;5080837;28;20025;-82
2023/04/22 06:29:04;;;;;;;0.10;0.10;;;;;;;11.74;67.29;100782.91;5079446;28;20028;-82
2023/04/22 06:31:31;;;;;;;0.20;0.20;;;;;;;11.77;67.77;100783.69;5081849;28;20213;-82
2023/04/22 06:33:58;;;;;;;0.45;0.45;;;;;;;11.86;67.95;100795.00;5078681;28;20030;-82
2023/04/22 06:36:24;;;;;;;0.35;0.35;;;;;;;11.92;67.48;100795.69;5082611;28;20028;-82
2023/04/22 06:38:50;;;;;;;0.10;0.10;;;;;;;11.97;68.40;100783.22;5077262;28;20020;-82
2023/04/22 06:41:17;;;;;;;0.52;0.30;;;;;;;12.03;68.57;100781.31;5078841;28;20038;-82
2023/04/22 06:43:43;;;;;;;0.13;0.13;;;;;;;12.11;68.10;100774.00;5075157;28;20028;-82
2023/04/22 06:46:10;;;;;;;0.45;0.45;;;;;;;12.19;67.92;100771.16;5077293;28;20042;-82
2023/04/22 06:48:36;;;;;;;0.30;0.30;;;;;;;12.25;67.93;100768.28;5081626;28;20104;-83
2023/04/22 06:51:02;;;;;;;0.68;0.68;;;;;;;12.33;68.05;100760.97;5070998;28;20061;-83
2023/04/22 06:53:28;;;;;;;0.10;0.10;;;;;;;12.43;67.91;100767.75;5082850;28;20047;-81
2023/04/22 06:55:54;;;;;;;0.15;0.15;;;;;;;12.53;67.68;100779.00;5076955;28;20064;-82
2023/04/22 06:58:20;;;;;;;0.10;0.10;;;;;;;12.63;68.11;100771.63;5079164;28;20223;-81
2023/04/22 07:00:46;;;;;;;0.20;0.20;;;;;;;12.70;67.94;100767.03;5086778;28;20055;-82
2023/04/22 07:03:12;;;;;;;0.20;0.20;;;;;;;12.79;67.59;100766.72;5078660;28;20052;-81
2023/04/22 07:05:39;;;;;;;0.55;0.55;;;;;;;12.86;67.90;100773.59;5083846;28;20491;-82
2023/04/22 07:08:05;;;;;;;0.10;0.10;;;;;;;12.93;67.77;100767.19;5064409;28;20447;-82
2023/04/22 07:10:31;;;;;;;0.22;0.22;;;;;;;13.02;67.76;100752.72;5084170;28;20359;-82
2023/04/22 07:12:57;;;;;;;0.28;0.28;;;;;;;13.07;67.63;100764.09;5076671;28;20045;-82
2023/04/22 07:15:23;;;;;;;0.10;0.10;;;;;;;13.18;67.11;100765.53;5082144;28;20041;-82
2023/04/22 07:17:49;;;;;;;0.75;0.75;;;;;;;13.29;67.24;100757.22;5073576;28;20036;-83
2023/04/22 07:20:15;;;;;;;0.80;0.40;;;;;;;13.41;66.83;100760.34;5080424;28;20064;-82
2023/04/22 07:22:41;;;;;;;0.10;0.10;;;;;;;13.52;67.22;100767.09;5077715;28;20074;-83
2023/04/22 07:25:08;;;;;;;0.40;0.40;;;;;;;13.58;67.20;100764.25;5079368;28;20025;-83
2023/04/22 07:27:35;;;;;;;0.10;0.10;;;;;;;13.63;66.96;100764.09;5082512;28;20043;-82
2023/04/22 07:30:02;;;;;;;0.85;0.85;;;;;;;13.69;66.78;100762.06;5084303;28;20376;-83
2023/04/22 07:32:28;;;;;;;0.32;0.32;;;;;;;13.78;66.81;100760.03;5089685;28;20031;-83
2023/04/22 07:34:55;;;;;;;0.10;0.10;;;;;;;13.82;66.49;100761.66;5091037;28;20059;-83
2023/04/22 07:37:22;;;;;;;2.60;1.73;;;;;;;13.86;66.36;100766.81;5090227;28;20029;-83
2023/04/22 07:39:48;;;;;;;0.10;0.10;;;;;;;13.90;66.41;100768.44;5083222;28;20039;-83
2023/04/22 07:42:14;;;;;;;0.10;0.10;;;;;;;13.96;66.31;100779.84;5082776;28;20029;-84
2023/04/22 07:44:40;;;;;;;1.13;1.13;;;;;;;14.00;66.14;100777.00;5068744;28;20029;-83
2023/04/22 07:47:07;;;;;;;0.20;0.20;;;;;;;14.05;66.11;100780.34;5061702;28;20104;-84
2023/04/22 07:49:33;;;;;;;0.10;0.10;;;;;;;14.12;66.14;100777.47;5059831;28;20074;-83
2023/04/22 07:52:00;;;;;;;0.35;0.35;;;;;;;14.16;65.91;100781.78;5065637;28;20039;-85
2023/04/22 07:54:26;;;;;;;0.20;0.20;;;;;;;14.15;65.88;100778.22;5081746;28;20024;-84
2023/04/22 07:56:52;;;;;;;0.20;0.20;;;;;;;14.14;65.92;100768.50;5088828;28;20039;-84
2023/04/22 07:59:18;;;;;;;1.17;0.95;;;;;;;14.13;65.75;100764.13;5083174;28;20104;-84
2023/04/22 08:01:45;;;;;;;3.83;0.98;;;;;;;14.16;65.65;100758.66;5071785;28;20033;-83
2023/04/22 08:04:12;;;;;;;0.50;0.50;;;;;;;14.19;65.71;100747.03;5072918;28;20016;-83
2023/04/22 08:06:38;;;;;;;1.55;1.05;;;;;;;14.20;65.69;100749.63;5082269;28;20506;-83
2023/04/22 08:09:04;;;;;;;0.10;0.10;;;;;;;14.25;65.77;100738.81;5083400;28;20025;-83
2023/04/22 08:11:30;;;;;;;0.20;0.20;;;;;;;14.29;65.91;100731.56;5083697;28;20123;-84
2023/04/22 08:13:56;;;;;;;0.43;0.43;;;;;;;14.37;65.57;100734.81;5083566;28;20028;-84
2023/04/22 08:16:22;;;;;;;0.20;0.20;;;;;;;14.43;65.58;100728.38;5083265;28;20040;-84
2023/04/22 08:18:48;;;;;;;0.20;0.20;;;;;;;14.48;65.66;100727.28;5085889;28;20060;-84
2023/04/22 08:21:14;;;;;;;0.10;0.10;;;;;;;14.59;65.71;100734.00;5070854;28;20035;-84
2023/04/22 08:23:40;;;;;;;0.20;0.20;;;;;;;14.73;65.47;100731.72;5082784;28;20024;-83
2023/04/22 08:26:07;;;;;;;0.30;0.30;;;;;;;14.86;65.36;100732.94;5084619;28;20510;-84
2023/04/22 08:28:34;;;;;;;0.30;0.30;;;;;;;15.04;65.54;100728.69;5078865;28;20028;-85
2023/04/22 08:31:00;;;;;;;0.95;0.95;;;;;;;15.25;65.23;100739.38;5078990;28;20025;-84
2023/04/22 08:33:26;;;;;;;0.10;0.10;;;;;;;15.44;65.18;100747.53;5081224;28;20082;-83
2023/04/22 08:35:52;;;;;;;0.10;0.10;;;;;;;15.56;64.03;100726.56;5077195;28;20040;-84
2023/04/22 08:38:18;;;;;;;0.43;0.43;;;;;;;15.65;63.76;100731.50;5079241;28;20032;-84
2023/04/22 08:40:45;;;;;;;0.28;0.28;;;;;;;15.76;63.50;100728.38;5083519;28;20116;-82
2023/04/22 08:43:11;;;;;;;0.85;0.85;;;;;;;15.84;63.01;100732.47;5084427;28;20766;-83
2023/04/22 08:45:39;;;;;;;0.10;0.10;;;;;;;15.91;62.61;100726.88;5088092;28;20107;-83
2023/04/22 08:48:07;;;;;;;0.10;0.10;;;;;;;15.93;63.26;100730.34;5071673;28;20162;-82
2023/04/22 08:50:35;;;;;;;0.05;0.05;;;;;;;15.93;62.66;100725.00;5082038;28;20555;-85
2023/04/22 08:53:01;;;;;;;0.30;0.30;;;;;;;15.97;62.73;100715.91;5082165;28;20496;-83
2023/04/22 08:55:27;;;;;;;0.10;0.10;;;;;;;15.97;62.49;100716.75;5088675;28;20039;-83
2023/04/22 08:57:53;;;;;;;0.57;0.57;;;;;;;16.01;62.83;100705.03;5084131;28;20020;-84
2023/04/22 09:00:20;;;;;;;1.20;0.63;;;;;;;16.02;63.12;100703.22;5092829;28;20024;-83
2023/04/22 09:02:47;;;;;;;0.10;0.10;;;;;;;16.07;63.17;100690.50;5092761;28;20020;-83
2023/04/22 09:05:13;;;;;;;0.17;0.17;;;;;;;16.13;63.46;100682.19;5084667;28;20057;-83
2023/04/22 09:07:40;;;;;;;0.68;0.68;;;;;;;16.24;63.27;100687.06;5091868;28;20027;-84
2023/04/22 09:10:07;;;;;;;0.20;0.20;;;;;;;16.31;62.02;100682.28;5088336;28;20025;-84
2023/04/22 09:12:33;;;;;;;0.10;0.10;;;;;;;16.36;62.11;100680.25;5081040;28;20046;-84
2023/04/22 09:14:59;;;;;;;0.45;0.45;;;;;;;16.46;62.40;100676.25;5087433;28;20024;-83
2023/04/22 09:17:36;;;;;;;0.17;0.17;;;;;;;16.61;61.40;100674.63;5093566;28;20028;-83
2023/04/22 09:20:03;;;;;;;0.10;0.10;;;;;;;16.71;61.74;100659.03;5088917;28;20395;-82
2023/04/22 09:22:40;;;;;;;0.10;0.10;;;;;;;16.87;61.67;100653.75;5089165;28;20502;-81
2023/04/22 09:27:55;;;;;;;0.17;0.17;;;;;;;17.02;62.68;100625.41;5063416;28;20419;-80
2023/04/22 09:30:27;;;;;;;0.10;0.10;;;;;;;17.10;62.42;100625.88;5072336;28;20099;-83
2023/04/22 09:32:54;;;;;;;0.10;0.10;;;;;;;17.14;61.93;100622.09;5054850;28;20064;-81
2023/04/22 09:35:38;;;;;;;0.10;0.10;;;;;;;17.26;61.03;100636.69;5052400;28;20096;-80
2023/04/22 09:38:07;;;;;;;0.10;0.10;;;;;;;17.19;60.04;100637.06;5053440;28;20025;-78
2023/04/22 09:40:34;;;;;;;0.10;0.10;;;;;;;17.23;62.00;100655.56;5054680;28;20052;-79
2023/04/22 09:43:04;;;;;;;0.10;0.10;;;;;;;17.31;61.88;100663.22;5048361;28;20024;-79
2023/04/22 09:48:13;;;;;;;0.20;0.20;;;;;;;17.63;60.46;100680.31;5101142;27;20380;-80
2023/04/22 09:50:42;;;;;;;0.20;0.20;;;;;;;17.82;59.04;100679.34;5093332;28;20378;-79
2023/04/22 09:53:11;;;;;;;1.30;1.20;;;;;;;17.94;57.60;100683.19;5092012;28;20032;-78
2023/04/22 09:55:40;;;;;;;0.22;0.22;;;;;;;18.02;58.86;100681.00;5087344;28;20124;-80
2023/04/22 09:58:10;;;;;;;0.25;0.25;;;;;;;18.11;58.34;100679.63;5088207;28;20032;-79
2023/04/22 10:00:41;;;;;;;0.10;0.10;;;;;;;18.24;57.79;100690.53;5086619;28;20044;-78
2023/04/22 10:03:07;;;;;;;0.20;0.20;;;;;;;18.36;59.92;100692.53;5091015;28;20035;-79
2023/04/22 10:05:36;;;;;;;0.10;0.10;;;;;;;18.47;58.82;100691.97;5092146;28;20060;-79
2023/04/22 10:08:04;;;;;;;0.45;0.30;;;;;;;18.58;59.08;100684.16;5089860;28;20024;-78
2023/04/22 10:10:31;;;;;;;0.20;0.20;;;;;;;18.60;56.73;100681.41;5084721;28;20029;-79
2023/04/22 10:12:58;;;;;;;0.50;0.50;;;;;;;18.66;56.07;100670.31;5085101;28;20032;-80
2023/04/22 10:15:25;;;;;;;0.73;0.73;;;;;;;18.75;58.37;100668.94;5085986;28;20089;-77
2023/04/22 10:17:53;;;;;;;0.10;0.10;;;;;;;18.82;58.15;100672.13;5094105;28;20489;-80
2023/04/22 10:20:20;;;;;;;1.00;0.95;;;;;;;18.81;55.71;100673.09;5083757;28;20028;-80
2023/04/22 10:22:47;;;;;;;0.98;0.85;;;;;;;18.77;55.61;100677.75;5088175;28;20028;-79
2023/04/22 10:25:24;;;;;;;0.10;0.10;;;;;;;18.81;57.45;100673.09;5089150;28;20059;-81
2023/04/22 10:28:08;;;;;;;0.30;0.30;;;;;;;18.72;57.32;100680.69;5085323;28;20073;-82
2023/04/22 10:30:37;;;;;;;0.20;0.20;;;;;;;18.60;57.21;100692.13;5092810;28;20036;-81
2023/04/22 10:36:17;;;;;;;0.20;0.20;;;;;;;18.40;56.14;100710.19;5075719;28;20393;-79
2023/04/22 10:41:30;;;;;;;0.50;0.50;;;;;;;18.07;56.84;100702.19;5106648;27;1171229;-82
2023/04/22 10:43:58;;;;;;;0.10;0.10;;;;;;;17.91;56.79;100704.78;5121016;27;20047;-81
2023/04/22 10:49:20;;;;;;;0.10;0.10;;;;;;;17.69;57.38;100699.69;5085842;27;20410;-81
2023/04/22 10:51:50;;;;;;;0.68;0.68;;;;;;;17.61;57.56;100700.94;5090838;28;20028;-79
2023/04/22 10:57:13;;;;;;;0.32;0.30;;;;;;;17.41;57.67;100696.63;5066188;28;20418;-80
2023/04/22 10:59:46;;;;;;;0.28;0.28;;;;;;;17.32;57.23;100690.84;5048013;28;20022;-80
2023/04/22 11:02:13;;;;;;;;;;;;;;;17.35;57.36;100691.56;5036279;28;20461;-81
2023/04/22 11:04:39;;;;;;;0.10;0.10;;;;;;;17.16;57.54;100688.09;5033376;28;19963;-81
2023/04/22 11:10:28;;;;;;;0.28;0.28;;;;;;;17.07;57.99;100660.84;5089633;27;20770;-82
2023/04/22 11:12:55;;;;;;;0.20;0.20;;;;;;;16.95;58.49;100677.53;5066328;28;20037;-79
2023/04/22 11:15:22;;;;;;;0.40;0.40;;;;;;;16.91;58.64;100705.31;5063583;28;20056;-79
2023/04/22 11:17:53;;;;;;;0.20;0.20;;;;;;;16.84;58.76;100726.16;5063603;28;20033;-81
2023/04/22 11:20:20;;;;;;;0.10;0.10;;;;;;;16.71;58.81;100738.38;5060778;28;20032;-76
2023/04/22 11:22:54;;;;;;;0.38;0.30;;;;;;;16.62;59.18;100708.47;5061337;28;20029;-76
2023/04/22 11:25:22;;;;;;;0.10;0.10;;;;;;;16.53;59.57;100714.25;5059855;28;20040;-78
2023/04/22 11:27:48;;;;;;;0.13;0.13;;;;;;;16.43;59.72;100719.16;5065976;28;20036;-78
2023/04/22 11:30:18;;;;;;;0.30;0.30;;;;;;;16.30;59.90;100724.22;5062464;28;20033;-79
2023/04/22 11:32:46;;;;;;;0.32;0.20;;;;;;;16.13;60.18;100722.28;5056423;28;20502;-77
2023/04/22 11:35:16;;;;;;;0.50;0.50;;;;;;;15.97;60.13;100726.59;5059402;28;20029;-78
2023/04/22 11:37:51;;;;;;;0.30;0.30;;;;;;;15.82;60.86;100733.50;5058729;28;20062;-79
2023/04/22 11:40:21;;;;;;;0.10;0.10;;;;;;;15.65;61.40;100715.47;5070542;28;20486;-79
2023/04/22 11:42:48;;;;;;;0.60;0.60;;;;;;;15.51;62.31;100726.75;5066559;28;20032;-80
2023/04/22 11:45:15;;;;;;;0.20;0.20;;;;;;;15.44;61.52;100720.81;5067714;28;20374;-79